sensor_id;sensor_type;location;lat;lon;timestamp;temperature;humidity
6724;DHT22;3399;52.530;13.304;2022-12-07T00:02:21;3.30;99.90
6724;DHT22;3399;52.530;13.304;2022-12-07T00:04:49;3.20;99.90
6724;DHT22;3399;52.530;13.304;2022-12-07T00:07:14;3.20;99.90
6724;DHT22;3399;52.530;13.304;2022-12-07T00:09:40;3.20;99.90
6724;DHT22;3399;52.530;13.304;2022-12-07T00:12:07;3.20;99.90
6724;DHT22;3399;52.530;13.304;2022-12-07T00:14:32;3.20;99.90
6724;DHT22;3399;52.530;13.304;2022-12-07T00:16:58;3.20;99.90
6724;DHT22;3399;52.530;13.304;2022-12-07T00:19:23;3.10;99.90
6724;DHT22;3399;52.530;13.304;2022-12-07T00:21:49;3.10;99.90
6724;DHT22;3399;52.530;13.304;2022-12-07T00:24:14;3.00;99.90
6724;DHT22;3399;52.530;13.304;2022-12-07T00:26:41;3.10;99.90
6724;DHT22;3399;52.530;13.304;2022-12-07T00:29:12;3.10;99.90
6724;DHT22;3399;52.530;13.304;2022-12-07T00:31:38;3.00;99.90
6724;DHT22;3399;52.530;13.304;2022-12-07T00:34:09;3.10;99.90
6724;DHT22;3399;52.530;13.304;2022-12-07T00:36:36;3.10;99.90
6724;DHT22;3399;52.530;13.304;2022-12-07T00:39:02;3.00;99.90
6724;DHT22;3399;52.530;13.304;2022-12-07T00:41:28;3.00;99.90
6724;DHT22;3399;52.530;13.304;2022-12-07T00:43:55;2.90;99.90
6724;DHT22;3399;52.530;13.304;2022-12-07T00:46:21;2.80;99.90
6724;DHT22;3399;52.530;13.304;2022-12-07T00:48:48;2.70;99.90
6724;DHT22;3399;52.530;13.304;2022-12-07T00:51:15;2.70;99.90
6724;DHT22;3399;52.530;13.304;2022-12-07T00:53:41;2.70;99.90
6724;DHT22;3399;52.530;13.304;2022-12-07T00:56:14;2.60;99.90
6724;DHT22;3399;52.530;13.304;2022-12-07T00:58:40;2.60;99.90
6724;DHT22;3399;52.530;13.304;2022-12-07T01:01:06;2.60;99.90
6724;DHT22;3399;52.530;13.304;2022-12-07T01:03:33;2.70;99.90
6724;DHT22;3399;52.530;13.304;2022-12-07T01:05:59;2.70;99.90
6724;DHT22;3399;52.530;13.304;2022-12-07T01:08:25;2.70;99.90
6724;DHT22;3399;52.530;13.304;2022-12-07T01:11:01;2.70;99.90
6724;DHT22;3399;52.530;13.304;2022-12-07T01:13:27;2.70;99.90
6724;DHT22;3399;52.530;13.304;2022-12-07T01:15:57;2.80;99.90
6724;DHT22;3399;52.530;13.304;2022-12-07T01:18:23;2.90;99.90
6724;DHT22;3399;52.530;13.304;2022-12-07T01:21:01;2.90;99.90
6724;DHT22;3399;52.530;13.304;2022-12-07T01:23:27;2.80;99.90
6724;DHT22;3399;52.530;13.304;2022-12-07T01:25:57;2.80;99.90
6724;DHT22;3399;52.530;13.304;2022-12-07T01:28:23;2.80;99.90
6724;DHT22;3399;52.530;13.304;2022-12-07T01:31:01;2.80;99.90
6724;DHT22;3399;52.530;13.304;2022-12-07T01:33:29;2.80;99.90
6724;DHT22;3399;52.530;13.304;2022-12-07T01:36:00;2.80;99.90
6724;DHT22;3399;52.530;13.304;2022-12-07T01:38:25;2.80;99.90
6724;DHT22;3399;52.530;13.304;2022-12-07T01:40:55;2.80;99.90
6724;DHT22;3399;52.530;13.304;2022-12-07T01:43:21;2.80;99.90
6724;DHT22;3399;52.530;13.304;2022-12-07T01:45:48;2.80;99.90
6724;DHT22;3399;52.530;13.304;2022-12-07T01:48:16;2.80;99.90
6724;DHT22;3399;52.530;13.304;2022-12-07T01:50:44;2.80;99.90
6724;DHT22;3399;52.530;13.304;2022-12-07T01:53:10;2.80;99.90
6724;DHT22;3399;52.530;13.304;2022-12-07T01:55:39;2.80;99.90
6724;DHT22;3399;52.530;13.304;2022-12-07T01:58:06;2.80;99.90
6724;DHT22;3399;52.530;13.304;2022-12-07T02:00:31;2.80;99.90
6724;DHT22;3399;52.530;13.304;2022-12-07T02:03:05;2.80;99.90
6724;DHT22;3399;52.530;13.304;2022-12-07T02:05:34;2.80;99.90
6724;DHT22;3399;52.530;13.304;2022-12-07T02:08:00;2.80;99.90
6724;DHT22;3399;52.530;13.304;2022-12-07T02:10:29;2.80;99.90
6724;DHT22;3399;52.530;13.304;2022-12-07T02:13:04;2.90;99.90
6724;DHT22;3399;52.530;13.304;2022-12-07T02:18:55;2.80;99.90
6724;DHT22;3399;52.530;13.304;2022-12-07T02:30:21;2.70;99.90
6724;DHT22;3399;52.530;13.304;2022-12-07T02:35:46;2.60;99.90
6724;DHT22;3399;52.530;13.304;2022-12-07T02:38:43;2.60;99.90
6724;DHT22;3399;52.530;13.304;2022-12-07T02:43:50;2.70;99.90
6724;DHT22;3399;52.530;13.304;2022-12-07T02:46:21;2.70;99.90
6724;DHT22;3399;52.530;13.304;2022-12-07T02:48:48;2.70;99.90
6724;DHT22;3399;52.530;13.304;2022-12-07T02:51:17;2.60;99.90
6724;DHT22;3399;52.530;13.304;2022-12-07T02:53:44;2.60;99.90
6724;DHT22;3399;52.530;13.304;2022-12-07T03:01:28;2.60;99.90
6724;DHT22;3399;52.530;13.304;2022-12-07T03:04:07;2.60;99.90
6724;DHT22;3399;52.530;13.304;2022-12-07T03:06:43;2.60;99.90
6724;DHT22;3399;52.530;13.304;2022-12-07T03:09:29;2.50;99.90
6724;DHT22;3399;52.530;13.304;2022-12-07T03:12:22;2.60;99.90
6724;DHT22;3399;52.530;13.304;2022-12-07T03:15:02;2.60;99.90
6724;DHT22;3399;52.530;13.304;2022-12-07T03:17:34;2.60;99.90
6724;DHT22;3399;52.530;13.304;2022-12-07T03:20:02;2.70;99.90
6724;DHT22;3399;52.530;13.304;2022-12-07T03:22:31;2.80;99.90
6724;DHT22;3399;52.530;13.304;2022-12-07T03:24:59;2.80;99.90
6724;DHT22;3399;52.530;13.304;2022-12-07T03:28:05;2.90;99.90
6724;DHT22;3399;52.530;13.304;2022-12-07T03:30:27;3.00;99.90
6724;DHT22;3399;52.530;13.304;2022-12-07T03:33:10;3.00;99.90
6724;DHT22;3399;52.530;13.304;2022-12-07T03:35:43;3.00;99.90
6724;DHT22;3399;52.530;13.304;2022-12-07T03:38:22;3.00;99.90
6724;DHT22;3399;52.530;13.304;2022-12-07T03:40:58;3.00;99.90
6724;DHT22;3399;52.530;13.304;2022-12-07T03:43:28;3.00;99.90
6724;DHT22;3399;52.530;13.304;2022-12-07T03:46:27;3.00;99.90
6724;DHT22;3399;52.530;13.304;2022-12-07T03:49:13;3.00;99.90
6724;DHT22;3399;52.530;13.304;2022-12-07T03:55:16;3.00;99.90
6724;DHT22;3399;52.530;13.304;2022-12-07T03:57:43;3.00;99.90
6724;DHT22;3399;52.530;13.304;2022-12-07T04:00:11;3.00;99.90
6724;DHT22;3399;52.530;13.304;2022-12-07T04:02:36;3.00;99.90
6724;DHT22;3399;52.530;13.304;2022-12-07T04:05:02;2.90;99.90
6724;DHT22;3399;52.530;13.304;2022-12-07T04:07:28;2.90;99.90
6724;DHT22;3399;52.530;13.304;2022-12-07T04:09:54;2.80;99.90
6724;DHT22;3399;52.530;13.304;2022-12-07T04:12:20;2.80;99.90
6724;DHT22;3399;52.530;13.304;2022-12-07T04:14:46;2.80;99.90
6724;DHT22;3399;52.530;13.304;2022-12-07T04:17:11;2.80;99.90
6724;DHT22;3399;52.530;13.304;2022-12-07T04:19:37;2.80;99.90
6724;DHT22;3399;52.530;13.304;2022-12-07T04:22:04;2.80;99.90
6724;DHT22;3399;52.530;13.304;2022-12-07T04:24:30;2.80;99.90
6724;DHT22;3399;52.530;13.304;2022-12-07T04:26:56;2.90;99.90
6724;DHT22;3399;52.530;13.304;2022-12-07T04:29:22;2.80;99.90
6724;DHT22;3399;52.530;13.304;2022-12-07T04:31:48;2.80;99.90
6724;DHT22;3399;52.530;13.304;2022-12-07T04:34:14;2.80;99.90
6724;DHT22;3399;52.530;13.304;2022-12-07T04:36:41;2.80;99.90
6724;DHT22;3399;52.530;13.304;2022-12-07T04:39:09;2.80;99.90
6724;DHT22;3399;52.530;13.304;2022-12-07T04:41:38;2.70;99.90
6724;DHT22;3399;52.530;13.304;2022-12-07T04:44:04;2.70;99.90
6724;DHT22;3399;52.530;13.304;2022-12-07T04:46:33;2.70;99.90
6724;DHT22;3399;52.530;13.304;2022-12-07T04:48:58;2.70;99.90
6724;DHT22;3399;52.530;13.304;2022-12-07T04:51:26;2.70;99.90
6724;DHT22;3399;52.530;13.304;2022-12-07T04:53:53;2.70;99.90
6724;DHT22;3399;52.530;13.304;2022-12-07T04:56:19;2.70;99.90
6724;DHT22;3399;52.530;13.304;2022-12-07T04:58:46;2.70;99.90
6724;DHT22;3399;52.530;13.304;2022-12-07T05:01:12;2.70;99.90
6724;DHT22;3399;52.530;13.304;2022-12-07T05:03:38;2.80;99.90
6724;DHT22;3399;52.530;13.304;2022-12-07T05:06:05;2.80;99.90
6724;DHT22;3399;52.530;13.304;2022-12-07T05:08:32;2.80;99.90
6724;DHT22;3399;52.530;13.304;2022-12-07T05:10:58;2.80;99.90
6724;DHT22;3399;52.530;13.304;2022-12-07T05:13:23;2.80;99.90
6724;DHT22;3399;52.530;13.304;2022-12-07T05:15:49;2.80;99.90
6724;DHT22;3399;52.530;13.304;2022-12-07T05:18:14;2.80;99.90
6724;DHT22;3399;52.530;13.304;2022-12-07T05:20:41;2.90;99.90
6724;DHT22;3399;52.530;13.304;2022-12-07T05:23:07;2.90;99.90
6724;DHT22;3399;52.530;13.304;2022-12-07T05:25:32;2.90;99.90
6724;DHT22;3399;52.530;13.304;2022-12-07T05:27:58;3.00;99.90
6724;DHT22;3399;52.530;13.304;2022-12-07T05:30:24;3.00;99.90
6724;DHT22;3399;52.530;13.304;2022-12-07T05:32:50;3.00;99.90
6724;DHT22;3399;52.530;13.304;2022-12-07T05:35:16;3.00;99.90
6724;DHT22;3399;52.530;13.304;2022-12-07T05:37:42;3.10;99.90
6724;DHT22;3399;52.530;13.304;2022-12-07T05:40:08;3.00;99.90
6724;DHT22;3399;52.530;13.304;2022-12-07T05:42:34;3.10;99.90
6724;DHT22;3399;52.530;13.304;2022-12-07T05:44:59;3.10;99.90
6724;DHT22;3399;52.530;13.304;2022-12-07T05:47:25;3.10;99.90
6724;DHT22;3399;52.530;13.304;2022-12-07T05:49:50;3.20;99.90
6724;DHT22;3399;52.530;13.304;2022-12-07T05:52:16;3.20;99.90
6724;DHT22;3399;52.530;13.304;2022-12-07T05:54:42;3.20;99.90
6724;DHT22;3399;52.530;13.304;2022-12-07T05:57:07;3.20;99.90
6724;DHT22;3399;52.530;13.304;2022-12-07T05:59:33;3.20;99.90
6724;DHT22;3399;52.530;13.304;2022-12-07T06:02:05;3.30;99.90
6724;DHT22;3399;52.530;13.304;2022-12-07T06:04:33;3.30;99.90
6724;DHT22;3399;52.530;13.304;2022-12-07T06:06:59;3.30;99.90
6724;DHT22;3399;52.530;13.304;2022-12-07T06:09:26;3.40;99.90
6724;DHT22;3399;52.530;13.304;2022-12-07T06:11:53;3.40;99.90
6724;DHT22;3399;52.530;13.304;2022-12-07T06:14:37;3.40;99.90
6724;DHT22;3399;52.530;13.304;2022-12-07T06:17:03;3.40;99.90
6724;DHT22;3399;52.530;13.304;2022-12-07T06:19:29;3.40;99.90
6724;DHT22;3399;52.530;13.304;2022-12-07T06:21:55;3.40;99.90
6724;DHT22;3399;52.530;13.304;2022-12-07T06:24:21;3.40;99.90
6724;DHT22;3399;52.530;13.304;2022-12-07T06:26:46;3.40;99.90
6724;DHT22;3399;52.530;13.304;2022-12-07T06:29:12;3.30;99.90
6724;DHT22;3399;52.530;13.304;2022-12-07T06:31:38;3.20;99.90
6724;DHT22;3399;52.530;13.304;2022-12-07T06:34:06;3.20;99.90
6724;DHT22;3399;52.530;13.304;2022-12-07T06:36:32;3.20;99.90
6724;DHT22;3399;52.530;13.304;2022-12-07T06:38:58;3.30;99.90
6724;DHT22;3399;52.530;13.304;2022-12-07T06:41:24;3.20;99.90
6724;DHT22;3399;52.530;13.304;2022-12-07T06:43:50;3.30;99.90
6724;DHT22;3399;52.530;13.304;2022-12-07T06:46:16;3.40;99.90
6724;DHT22;3399;52.530;13.304;2022-12-07T06:48:42;3.40;99.90
6724;DHT22;3399;52.530;13.304;2022-12-07T06:51:08;3.40;99.90
6724;DHT22;3399;52.530;13.304;2022-12-07T06:53:34;3.40;99.90
6724;DHT22;3399;52.530;13.304;2022-12-07T06:56:00;3.40;99.90
6724;DHT22;3399;52.530;13.304;2022-12-07T06:58:26;3.50;99.90
6724;DHT22;3399;52.530;13.304;2022-12-07T07:00:51;3.50;99.90
6724;DHT22;3399;52.530;13.304;2022-12-07T07:03:17;3.50;99.90
6724;DHT22;3399;52.530;13.304;2022-12-07T07:05:43;3.50;99.90
6724;DHT22;3399;52.530;13.304;2022-12-07T07:08:10;3.50;99.90
6724;DHT22;3399;52.530;13.304;2022-12-07T07:10:35;3.60;99.90
6724;DHT22;3399;52.530;13.304;2022-12-07T07:13:01;3.60;99.90
6724;DHT22;3399;52.530;13.304;2022-12-07T07:15:27;3.60;99.90
6724;DHT22;3399;52.530;13.304;2022-12-07T07:17:52;3.60;99.90
6724;DHT22;3399;52.530;13.304;2022-12-07T07:20:18;3.70;99.90
6724;DHT22;3399;52.530;13.304;2022-12-07T07:22:44;3.70;99.90
6724;DHT22;3399;52.530;13.304;2022-12-07T07:25:09;3.70;99.90
6724;DHT22;3399;52.530;13.304;2022-12-07T07:27:35;3.70;99.90
6724;DHT22;3399;52.530;13.304;2022-12-07T07:30:00;3.70;99.90
6724;DHT22;3399;52.530;13.304;2022-12-07T07:32:26;3.70;99.90
6724;DHT22;3399;52.530;13.304;2022-12-07T07:34:51;3.70;99.90
6724;DHT22;3399;52.530;13.304;2022-12-07T07:37:17;3.60;99.90
6724;DHT22;3399;52.530;13.304;2022-12-07T07:39:42;3.60;99.90
6724;DHT22;3399;52.530;13.304;2022-12-07T07:42:08;3.60;99.90
6724;DHT22;3399;52.530;13.304;2022-12-07T07:44:34;3.60;99.90
6724;DHT22;3399;52.530;13.304;2022-12-07T07:47:00;3.60;99.90
6724;DHT22;3399;52.530;13.304;2022-12-07T07:49:26;3.60;99.90
6724;DHT22;3399;52.530;13.304;2022-12-07T07:51:52;3.60;99.90
6724;DHT22;3399;52.530;13.304;2022-12-07T07:54:17;3.70;99.90
6724;DHT22;3399;52.530;13.304;2022-12-07T07:56:43;3.70;99.90
6724;DHT22;3399;52.530;13.304;2022-12-07T07:59:08;3.80;99.90
6724;DHT22;3399;52.530;13.304;2022-12-07T08:01:34;3.70;99.90
6724;DHT22;3399;52.530;13.304;2022-12-07T08:04:00;3.70;99.90
6724;DHT22;3399;52.530;13.304;2022-12-07T08:06:26;3.70;99.90
6724;DHT22;3399;52.530;13.304;2022-12-07T08:08:52;3.80;99.90
6724;DHT22;3399;52.530;13.304;2022-12-07T08:11:18;3.80;99.90
6724;DHT22;3399;52.530;13.304;2022-12-07T08:13:46;3.80;99.90
6724;DHT22;3399;52.530;13.304;2022-12-07T08:16:14;3.80;99.90
6724;DHT22;3399;52.530;13.304;2022-12-07T08:18:41;3.90;99.90
6724;DHT22;3399;52.530;13.304;2022-12-07T08:21:11;3.90;99.90
6724;DHT22;3399;52.530;13.304;2022-12-07T08:23:37;4.00;99.90
6724;DHT22;3399;52.530;13.304;2022-12-07T08:26:04;4.00;99.90
6724;DHT22;3399;52.530;13.304;2022-12-07T08:28:30;4.00;99.90
6724;DHT22;3399;52.530;13.304;2022-12-07T08:30:59;4.00;99.90
6724;DHT22;3399;52.530;13.304;2022-12-07T08:33:25;4.00;99.90
6724;DHT22;3399;52.530;13.304;2022-12-07T08:35:51;4.00;99.90
6724;DHT22;3399;52.530;13.304;2022-12-07T08:38:16;4.00;99.90
6724;DHT22;3399;52.530;13.304;2022-12-07T08:40:42;4.00;99.90
6724;DHT22;3399;52.530;13.304;2022-12-07T08:43:07;4.10;99.90
6724;DHT22;3399;52.530;13.304;2022-12-07T08:45:33;4.00;99.90
6724;DHT22;3399;52.530;13.304;2022-12-07T08:48:06;4.10;99.90
6724;DHT22;3399;52.530;13.304;2022-12-07T08:50:33;4.10;99.90
6724;DHT22;3399;52.530;13.304;2022-12-07T08:53:00;4.10;99.90
6724;DHT22;3399;52.530;13.304;2022-12-07T08:55:27;4.10;99.90
6724;DHT22;3399;52.530;13.304;2022-12-07T08:57:53;4.10;99.90
6724;DHT22;3399;52.530;13.304;2022-12-07T09:00:18;4.10;99.90
6724;DHT22;3399;52.530;13.304;2022-12-07T09:02:45;4.10;99.90
6724;DHT22;3399;52.530;13.304;2022-12-07T09:05:11;4.00;99.90
6724;DHT22;3399;52.530;13.304;2022-12-07T09:07:37;4.00;99.90
6724;DHT22;3399;52.530;13.304;2022-12-07T09:10:04;4.00;99.90
6724;DHT22;3399;52.530;13.304;2022-12-07T09:12:30;4.00;99.90
6724;DHT22;3399;52.530;13.304;2022-12-07T09:14:55;4.00;99.90
6724;DHT22;3399;52.530;13.304;2022-12-07T09:17:21;3.90;99.90
6724;DHT22;3399;52.530;13.304;2022-12-07T09:19:47;3.90;99.90
6724;DHT22;3399;52.530;13.304;2022-12-07T09:22:12;3.90;99.90
6724;DHT22;3399;52.530;13.304;2022-12-07T09:24:38;4.00;99.90
6724;DHT22;3399;52.530;13.304;2022-12-07T09:27:03;3.90;99.90
6724;DHT22;3399;52.530;13.304;2022-12-07T09:29:29;4.00;99.90
6724;DHT22;3399;52.530;13.304;2022-12-07T09:31:54;3.90;99.90
6724;DHT22;3399;52.530;13.304;2022-12-07T09:34:20;3.90;99.90
6724;DHT22;3399;52.530;13.304;2022-12-07T09:36:45;3.90;99.90
6724;DHT22;3399;52.530;13.304;2022-12-07T09:39:11;3.90;99.90
6724;DHT22;3399;52.530;13.304;2022-12-07T09:41:41;3.90;99.90
6724;DHT22;3399;52.530;13.304;2022-12-07T09:44:12;3.90;99.90
6724;DHT22;3399;52.530;13.304;2022-12-07T09:46:40;3.90;99.90
6724;DHT22;3399;52.530;13.304;2022-12-07T09:49:16;3.80;99.90
6724;DHT22;3399;52.530;13.304;2022-12-07T09:51:43;3.80;99.90
6724;DHT22;3399;52.530;13.304;2022-12-07T09:54:12;3.80;99.90
6724;DHT22;3399;52.530;13.304;2022-12-07T09:56:38;3.80;99.90
6724;DHT22;3399;52.530;13.304;2022-12-07T09:59:04;3.80;99.90
6724;DHT22;3399;52.530;13.304;2022-12-07T10:01:32;3.80;99.90
6724;DHT22;3399;52.530;13.304;2022-12-07T10:04:11;3.80;99.90
6724;DHT22;3399;52.530;13.304;2022-12-07T10:06:38;3.80;99.90
6724;DHT22;3399;52.530;13.304;2022-12-07T10:09:10;3.80;99.90
6724;DHT22;3399;52.530;13.304;2022-12-07T10:12:02;3.70;99.90
6724;DHT22;3399;52.530;13.304;2022-12-07T10:14:30;3.80;99.90
6724;DHT22;3399;52.530;13.304;2022-12-07T10:16:56;3.80;99.90
6724;DHT22;3399;52.530;13.304;2022-12-07T10:19:30;3.80;99.90
6724;DHT22;3399;52.530;13.304;2022-12-07T10:24:24;3.70;99.90
6724;DHT22;3399;52.530;13.304;2022-12-07T10:26:53;3.80;99.90
6724;DHT22;3399;52.530;13.304;2022-12-07T10:29:37;3.70;99.90
6724;DHT22;3399;52.530;13.304;2022-12-07T10:32:27;3.70;99.90
6724;DHT22;3399;52.530;13.304;2022-12-07T10:34:52;3.70;99.90
6724;DHT22;3399;52.530;13.304;2022-12-07T10:37:40;3.80;99.90
6724;DHT22;3399;52.530;13.304;2022-12-07T10:48:56;4.00;99.90
6724;DHT22;3399;52.530;13.304;2022-12-07T10:51:39;4.00;99.90
6724;DHT22;3399;52.530;13.304;2022-12-07T10:54:15;4.00;99.90
6724;DHT22;3399;52.530;13.304;2022-12-07T10:57:02;4.00;99.90
6724;DHT22;3399;52.530;13.304;2022-12-07T11:07:47;4.10;99.90
6724;DHT22;3399;52.530;13.304;2022-12-07T11:10:25;4.00;99.90
6724;DHT22;3399;52.530;13.304;2022-12-07T11:15:51;4.00;99.90
6724;DHT22;3399;52.530;13.304;2022-12-07T11:18:27;4.00;99.90
6724;DHT22;3399;52.530;13.304;2022-12-07T11:21:26;4.10;99.90
6724;DHT22;3399;52.530;13.304;2022-12-07T11:26:56;4.20;99.90
6724;DHT22;3399;52.530;13.304;2022-12-07T11:29:41;4.20;99.90
6724;DHT22;3399;52.530;13.304;2022-12-07T11:32:29;4.20;99.90
6724;DHT22;3399;52.530;13.304;2022-12-07T11:35:43;4.30;99.90
6724;DHT22;3399;52.530;13.304;2022-12-07T11:38:24;4.30;99.90
6724;DHT22;3399;52.530;13.304;2022-12-07T11:40:56;4.30;99.90
6724;DHT22;3399;52.530;13.304;2022-12-07T11:43:53;4.40;99.90
6724;DHT22;3399;52.530;13.304;2022-12-07T11:46:22;4.40;99.90
6724;DHT22;3399;52.530;13.304;2022-12-07T11:51:57;4.50;99.90
6724;DHT22;3399;52.530;13.304;2022-12-07T11:54:28;4.40;99.90
6724;DHT22;3399;52.530;13.304;2022-12-07T11:56:57;4.40;99.90
6724;DHT22;3399;52.530;13.304;2022-12-07T11:59:36;4.50;99.90
6724;DHT22;3399;52.530;13.304;2022-12-07T12:02:13;4.50;99.90
6724;DHT22;3399;52.530;13.304;2022-12-07T12:05:11;4.50;99.90
6724;DHT22;3399;52.530;13.304;2022-12-07T12:07:38;4.50;99.90
6724;DHT22;3399;52.530;13.304;2022-12-07T12:10:17;4.60;99.90
6724;DHT22;3399;52.530;13.304;2022-12-07T12:12:50;4.60;99.90
6724;DHT22;3399;52.530;13.304;2022-12-07T12:15:52;4.70;99.90
6724;DHT22;3399;52.530;13.304;2022-12-07T12:19:10;4.80;99.90
6724;DHT22;3399;52.530;13.304;2022-12-07T12:21:41;4.90;99.90
6724;DHT22;3399;52.530;13.304;2022-12-07T12:24:15;5.10;99.90
6724;DHT22;3399;52.530;13.304;2022-12-07T12:26:51;5.10;99.90
6724;DHT22;3399;52.530;13.304;2022-12-07T12:29:27;5.10;99.90
6724;DHT22;3399;52.530;13.304;2022-12-07T12:32:11;5.10;99.90
6724;DHT22;3399;52.530;13.304;2022-12-07T12:42:53;5.10;99.90
6724;DHT22;3399;52.530;13.304;2022-12-07T12:45:26;5.00;99.90
6724;DHT22;3399;52.530;13.304;2022-12-07T12:48:00;5.10;99.90
6724;DHT22;3399;52.530;13.304;2022-12-07T12:50:37;5.10;99.90
6724;DHT22;3399;52.530;13.304;2022-12-07T12:53:15;5.10;99.90
6724;DHT22;3399;52.530;13.304;2022-12-07T13:03:53;5.30;99.90
6724;DHT22;3399;52.530;13.304;2022-12-07T13:06:28;5.30;99.90
6724;DHT22;3399;52.530;13.304;2022-12-07T13:08:58;5.30;99.90
6724;DHT22;3399;52.530;13.304;2022-12-07T13:11:33;5.30;99.90
6724;DHT22;3399;52.530;13.304;2022-12-07T13:17:02;5.20;99.90
6724;DHT22;3399;52.530;13.304;2022-12-07T13:19:53;5.30;99.90
6724;DHT22;3399;52.530;13.304;2022-12-07T13:25:20;5.30;99.90
6724;DHT22;3399;52.530;13.304;2022-12-07T13:27:51;5.20;99.90
6724;DHT22;3399;52.530;13.304;2022-12-07T13:30:20;5.20;99.90
6724;DHT22;3399;52.530;13.304;2022-12-07T13:32:58;5.20;99.90
6724;DHT22;3399;52.530;13.304;2022-12-07T13:35:29;5.10;99.90
6724;DHT22;3399;52.530;13.304;2022-12-07T13:37:54;5.00;99.90
6724;DHT22;3399;52.530;13.304;2022-12-07T13:40:22;5.00;99.90
6724;DHT22;3399;52.530;13.304;2022-12-07T13:42:47;5.00;99.90
6724;DHT22;3399;52.530;13.304;2022-12-07T13:45:29;5.00;99.90
6724;DHT22;3399;52.530;13.304;2022-12-07T13:48:24;5.00;99.90
6724;DHT22;3399;52.530;13.304;2022-12-07T13:50:57;4.90;99.90
6724;DHT22;3399;52.530;13.304;2022-12-07T13:53:23;4.90;99.90
6724;DHT22;3399;52.530;13.304;2022-12-07T13:55:49;4.80;99.90
6724;DHT22;3399;52.530;13.304;2022-12-07T13:58:15;4.80;99.90
6724;DHT22;3399;52.530;13.304;2022-12-07T14:00:41;4.70;99.90
6724;DHT22;3399;52.530;13.304;2022-12-07T14:05:43;4.70;99.90
6724;DHT22;3399;52.530;13.304;2022-12-07T14:10:54;4.70;99.90
6724;DHT22;3399;52.530;13.304;2022-12-07T14:13:37;4.70;99.90
6724;DHT22;3399;52.530;13.304;2022-12-07T14:16:30;4.60;99.90
6724;DHT22;3399;52.530;13.304;2022-12-07T14:18:58;4.60;99.90
6724;DHT22;3399;52.530;13.304;2022-12-07T14:21:27;4.60;99.90
6724;DHT22;3399;52.530;13.304;2022-12-07T14:24:16;4.50;99.90
6724;DHT22;3399;52.530;13.304;2022-12-07T14:26:43;4.50;99.90
6724;DHT22;3399;52.530;13.304;2022-12-07T14:31:51;4.50;99.90
6724;DHT22;3399;52.530;13.304;2022-12-07T14:34:19;4.40;99.90
6724;DHT22;3399;52.530;13.304;2022-12-07T14:36:44;4.50;99.90
6724;DHT22;3399;52.530;13.304;2022-12-07T14:39:10;4.40;99.90
6724;DHT22;3399;52.530;13.304;2022-12-07T14:41:35;4.30;99.90
6724;DHT22;3399;52.530;13.304;2022-12-07T14:44:16;4.30;99.90
6724;DHT22;3399;52.530;13.304;2022-12-07T14:46:42;4.20;99.90
6724;DHT22;3399;52.530;13.304;2022-12-07T14:49:08;4.20;99.90
6724;DHT22;3399;52.530;13.304;2022-12-07T14:51:36;4.20;99.90
6724;DHT22;3399;52.530;13.304;2022-12-07T14:54:04;4.10;99.90
6724;DHT22;3399;52.530;13.304;2022-12-07T14:56:30;4.10;99.90
6724;DHT22;3399;52.530;13.304;2022-12-07T14:58:56;4.00;99.90
6724;DHT22;3399;52.530;13.304;2022-12-07T15:01:21;4.00;99.90
6724;DHT22;3399;52.530;13.304;2022-12-07T15:03:47;4.00;99.90
6724;DHT22;3399;52.530;13.304;2022-12-07T15:06:17;3.90;99.90
6724;DHT22;3399;52.530;13.304;2022-12-07T15:08:43;3.80;99.90
6724;DHT22;3399;52.530;13.304;2022-12-07T15:11:16;3.80;99.90
6724;DHT22;3399;52.530;13.304;2022-12-07T15:13:42;3.70;99.90
6724;DHT22;3399;52.530;13.304;2022-12-07T15:16:26;3.70;99.90
6724;DHT22;3399;52.530;13.304;2022-12-07T15:18:52;3.70;99.90
6724;DHT22;3399;52.530;13.304;2022-12-07T15:21:18;3.60;99.90
6724;DHT22;3399;52.530;13.304;2022-12-07T15:23:43;3.60;99.90
6724;DHT22;3399;52.530;13.304;2022-12-07T15:26:12;3.60;99.90
6724;DHT22;3399;52.530;13.304;2022-12-07T15:28:37;3.50;99.90
6724;DHT22;3399;52.530;13.304;2022-12-07T15:31:03;3.60;99.90
6724;DHT22;3399;52.530;13.304;2022-12-07T15:33:28;3.70;99.90
6724;DHT22;3399;52.530;13.304;2022-12-07T15:35:54;3.60;99.90
6724;DHT22;3399;52.530;13.304;2022-12-07T15:38:19;3.70;99.90
6724;DHT22;3399;52.530;13.304;2022-12-07T15:40:48;3.70;99.90
6724;DHT22;3399;52.530;13.304;2022-12-07T15:43:14;3.80;99.90
6724;DHT22;3399;52.530;13.304;2022-12-07T15:45:58;3.80;99.90
6724;DHT22;3399;52.530;13.304;2022-12-07T15:48:24;3.80;99.90
6724;DHT22;3399;52.530;13.304;2022-12-07T15:50:50;3.80;99.90
6724;DHT22;3399;52.530;13.304;2022-12-07T15:53:16;3.80;99.90
6724;DHT22;3399;52.530;13.304;2022-12-07T15:55:41;3.80;99.90
6724;DHT22;3399;52.530;13.304;2022-12-07T15:58:07;3.80;99.90
6724;DHT22;3399;52.530;13.304;2022-12-07T16:00:32;3.70;99.90
6724;DHT22;3399;52.530;13.304;2022-12-07T16:02:58;3.80;99.90
6724;DHT22;3399;52.530;13.304;2022-12-07T16:05:30;3.80;99.90
6724;DHT22;3399;52.530;13.304;2022-12-07T16:07:55;3.80;99.90
6724;DHT22;3399;52.530;13.304;2022-12-07T16:10:21;3.80;99.90
6724;DHT22;3399;52.530;13.304;2022-12-07T16:12:46;3.80;99.90
6724;DHT22;3399;52.530;13.304;2022-12-07T16:15:12;3.70;99.90
6724;DHT22;3399;52.530;13.304;2022-12-07T16:17:37;3.70;99.90
6724;DHT22;3399;52.530;13.304;2022-12-07T16:20:03;3.60;99.90
6724;DHT22;3399;52.530;13.304;2022-12-07T16:22:29;3.60;99.90
6724;DHT22;3399;52.530;13.304;2022-12-07T16:24:55;3.50;99.90
6724;DHT22;3399;52.530;13.304;2022-12-07T16:27:20;3.50;99.90
6724;DHT22;3399;52.530;13.304;2022-12-07T16:29:45;3.50;99.90
6724;DHT22;3399;52.530;13.304;2022-12-07T16:32:11;3.50;99.90
6724;DHT22;3399;52.530;13.304;2022-12-07T16:34:36;3.50;99.90
6724;DHT22;3399;52.530;13.304;2022-12-07T16:37:02;3.40;99.90
6724;DHT22;3399;52.530;13.304;2022-12-07T16:39:27;3.40;99.90
6724;DHT22;3399;52.530;13.304;2022-12-07T16:41:53;3.40;99.90
6724;DHT22;3399;52.530;13.304;2022-12-07T16:44:18;3.40;99.90
6724;DHT22;3399;52.530;13.304;2022-12-07T16:46:44;3.40;99.90
6724;DHT22;3399;52.530;13.304;2022-12-07T16:49:12;3.30;99.90
6724;DHT22;3399;52.530;13.304;2022-12-07T16:51:38;3.30;99.90
6724;DHT22;3399;52.530;13.304;2022-12-07T16:54:04;3.30;99.90
6724;DHT22;3399;52.530;13.304;2022-12-07T16:56:30;3.30;99.90
6724;DHT22;3399;52.530;13.304;2022-12-07T16:58:58;3.20;99.90
6724;DHT22;3399;52.530;13.304;2022-12-07T17:01:23;3.20;99.90
6724;DHT22;3399;52.530;13.304;2022-12-07T17:03:49;3.20;99.90
6724;DHT22;3399;52.530;13.304;2022-12-07T17:06:23;3.10;99.90
6724;DHT22;3399;52.530;13.304;2022-12-07T17:08:49;3.10;99.90
6724;DHT22;3399;52.530;13.304;2022-12-07T17:11:21;3.10;99.90
6724;DHT22;3399;52.530;13.304;2022-12-07T17:13:47;3.10;99.90
6724;DHT22;3399;52.530;13.304;2022-12-07T17:16:31;3.10;99.90
6724;DHT22;3399;52.530;13.304;2022-12-07T17:18:57;3.10;99.90
6724;DHT22;3399;52.530;13.304;2022-12-07T17:21:23;3.10;99.90
6724;DHT22;3399;52.530;13.304;2022-12-07T17:23:49;3.10;99.90
6724;DHT22;3399;52.530;13.304;2022-12-07T17:26:18;3.00;99.90
6724;DHT22;3399;52.530;13.304;2022-12-07T17:28:44;3.00;99.90
6724;DHT22;3399;52.530;13.304;2022-12-07T17:31:14;3.00;99.90
6724;DHT22;3399;52.530;13.304;2022-12-07T17:33:40;3.00;99.90
6724;DHT22;3399;52.530;13.304;2022-12-07T17:36:21;2.90;99.90
6724;DHT22;3399;52.530;13.304;2022-12-07T17:38:47;2.90;99.90
6724;DHT22;3399;52.530;13.304;2022-12-07T17:41:19;2.80;99.90
6724;DHT22;3399;52.530;13.304;2022-12-07T17:44:06;2.80;99.90